Terminal Aerodrome Forecast
Issued by NWS

Current Version | Previous Version | Text Only | Print | Product List | Glossary On
Versions: 1 2 3 4 5 6 7 8 9 10 11
000
FTUS44 KJAN 291120
TAFGTR
TAF
KGTR 291120Z 2912/3012 14010KT P6SM OVC050
     FM291600 17014G20KT P6SM SCT060 BKN250
     FM300200 17010KT P6SM SCT025 OVC050
     FM300700 19011KT P6SM VCTS OVC025CB
     FM301000 19010KT 3SM TSRA OVC015CB=

USA.gov is the U.S. government's official web portal to all federal, state and local government web resources and services.